createdAt,value
2017-12-05T05:00:48.211Z,0
2017-12-05T05:01:13.680Z,0
2017-12-05T05:01:39.174Z,0
2017-12-05T05:02:04.666Z,0
2017-12-05T05:02:30.182Z,0
2017-12-05T05:02:55.718Z,0
2017-12-05T05:03:21.218Z,0
2017-12-05T05:03:46.665Z,0
2017-12-05T05:04:12.172Z,0
2017-12-05T05:04:37.676Z,0
2017-12-05T05:05:03.140Z,0
2017-12-05T05:05:28.606Z,0
2017-12-05T05:05:54.116Z,0
2017-12-05T05:06:19.634Z,0
2017-12-05T05:07:38.553Z,0
2017-12-05T05:08:04.074Z,0
2017-12-05T05:08:29.581Z,0
2017-12-05T05:08:55.097Z,0
2017-12-05T05:09:20.607Z,0
2017-12-05T05:09:46.109Z,0
2017-12-05T05:10:11.597Z,0
2017-12-05T05:10:37.073Z,0
2017-12-05T05:11:02.570Z,0
2017-12-05T05:11:28.068Z,0
2017-12-05T05:11:53.597Z,0
2017-12-05T05:12:19.071Z,0
2017-12-05T05:12:44.592Z,0
2017-12-05T05:13:10.095Z,0
2017-12-05T05:13:35.605Z,0
2017-12-05T05:14:01.072Z,0
2017-12-05T05:14:26.556Z,0
2017-12-05T05:14:52.056Z,0
2017-12-05T05:15:17.513Z,0
2017-12-05T05:15:42.993Z,0
2017-12-05T05:16:08.506Z,0
2017-12-05T05:16:34.018Z,0
2017-12-05T05:16:59.488Z,0
2017-12-05T05:17:24.981Z,0
2017-12-05T05:17:50.482Z,0
2017-12-05T05:18:15.981Z,0
2017-12-05T05:18:41.481Z,0
2017-12-05T05:19:06.987Z,0
2017-12-05T05:19:32.462Z,0
2017-12-05T05:19:57.980Z,0
2017-12-05T05:20:23.427Z,0
2017-12-05T05:20:48.928Z,0
2017-12-05T05:21:14.403Z,0
2017-12-05T05:21:39.888Z,0
2017-12-05T05:22:05.412Z,0
2017-12-05T05:22:30.965Z,0
2017-12-05T05:22:56.511Z,0
2017-12-05T05:23:22.011Z,0
2017-12-05T05:23:47.600Z,0
2017-12-05T05:24:13.074Z,0
2017-12-05T05:24:38.559Z,0
2017-12-05T05:25:03.982Z,0
2017-12-05T05:25:29.648Z,0
2017-12-05T05:25:55.184Z,0
2017-12-05T05:26:20.710Z,0
2017-12-05T05:26:46.236Z,0
2017-12-05T05:27:11.684Z,0
2017-12-05T05:27:37.215Z,0
2017-12-05T05:28:02.694Z,0
2017-12-05T05:28:28.210Z,0
2017-12-05T05:28:53.660Z,0
2017-12-05T05:29:19.165Z,0
2017-12-05T05:29:44.670Z,0
2017-12-05T05:30:10.134Z,0
2017-12-05T05:30:35.614Z,0
2017-12-05T05:31:01.097Z,0
2017-12-05T05:31:26.933Z,0
2017-12-05T05:31:52.503Z,0
2017-12-05T05:32:18.056Z,0
2017-12-05T05:32:43.634Z,0
2017-12-05T05:33:09.130Z,0
2017-12-05T05:33:34.623Z,0
2017-12-05T05:34:00.245Z,0
2017-12-05T05:34:25.748Z,0
2017-12-05T05:34:51.202Z,0
2017-12-05T05:35:16.693Z,0
2017-12-05T05:35:42.159Z,0
2017-12-05T05:36:07.718Z,0
2017-12-05T05:36:33.188Z,0
2017-12-05T05:36:58.649Z,0
2017-12-05T05:37:24.112Z,0
2017-12-05T05:37:49.617Z,0
2017-12-05T05:38:15.076Z,0
2017-12-05T05:38:40.708Z,0
2017-12-05T05:39:06.224Z,0
2017-12-05T05:39:31.743Z,0
2017-12-05T05:39:57.224Z,0
2017-12-05T05:40:22.766Z,0
2017-12-05T05:40:48.279Z,0
2017-12-05T05:41:13.764Z,0
2017-12-05T05:41:39.232Z,0
2017-12-05T05:42:04.715Z,0
2017-12-05T05:42:30.213Z,0
2017-12-05T05:42:55.696Z,0
2017-12-05T05:43:21.203Z,0
2017-12-05T05:43:46.719Z,0
2017-12-05T05:44:12.237Z,0
2017-12-05T05:45:42.334Z,0
2017-12-05T05:46:07.836Z,0
2017-12-05T05:46:33.312Z,0
2017-12-05T05:46:58.862Z,0
2017-12-05T05:47:24.425Z,0
2017-12-05T05:47:49.928Z,0
2017-12-05T05:49:03.762Z,0
2017-12-05T05:49:29.694Z,0
2017-12-05T05:49:55.188Z,0
2017-12-05T05:50:20.681Z,0
2017-12-05T05:50:46.200Z,0
2017-12-05T05:51:11.715Z,0
2017-12-05T05:51:37.217Z,0
2017-12-05T05:52:02.689Z,0
2017-12-05T05:52:28.107Z,0
2017-12-05T05:52:53.652Z,0
2017-12-05T05:53:19.127Z,0
2017-12-05T05:53:44.580Z,0
2017-12-05T05:54:10.035Z,0
2017-12-05T05:54:35.518Z,0
2017-12-05T05:55:01.060Z,0
2017-12-05T05:55:26.585Z,0
2017-12-05T05:55:52.064Z,0
2017-12-05T05:56:17.585Z,0
2017-12-05T05:56:43.034Z,0
2017-12-05T05:57:08.492Z,0
2017-12-05T05:57:34.013Z,0
2017-12-05T05:57:59.469Z,0
2017-12-05T05:58:25.064Z,0
2017-12-05T05:58:50.519Z,0
2017-12-05T05:59:16.044Z,0
2017-12-05T05:59:41.552Z,0
2017-12-05T06:00:06.976Z,0
2017-12-05T06:00:32.470Z,0
2017-12-05T06:00:57.954Z,0
2017-12-05T06:01:23.426Z,0
2017-12-05T06:01:48.921Z,0
2017-12-05T06:02:14.397Z,0
2017-12-05T06:02:39.868Z,0
2017-12-05T06:03:05.357Z,0
2017-12-05T06:03:30.821Z,0
2017-12-05T06:03:56.419Z,0
2017-12-05T06:04:21.867Z,0
2017-12-05T06:04:47.434Z,0
2017-12-05T06:05:12.941Z,0
2017-12-05T06:05:38.393Z,0
2017-12-05T06:06:03.910Z,0
2017-12-05T06:06:29.413Z,0
2017-12-05T06:06:54.868Z,0
2017-12-05T06:07:20.376Z,0
2017-12-05T06:07:45.837Z,0
2017-12-05T06:08:11.335Z,0
2017-12-05T06:08:36.832Z,0
2017-12-05T06:09:02.330Z,0
2017-12-05T06:09:27.872Z,0
2017-12-05T06:09:53.390Z,0
2017-12-05T06:10:18.894Z,0
2017-12-05T06:10:44.397Z,0
2017-12-05T06:11:09.864Z,0
2017-12-05T06:11:35.321Z,0
2017-12-05T06:12:00.862Z,0
2017-12-05T06:12:26.314Z,0
2017-12-05T06:12:51.811Z,0
2017-12-05T06:13:17.343Z,0
2017-12-05T06:13:42.880Z,0
2017-12-05T06:14:08.376Z,0
2017-12-05T06:14:33.847Z,0
2017-12-05T06:14:59.308Z,0
2017-12-05T06:15:24.865Z,0
2017-12-05T06:15:50.390Z,0
2017-12-05T06:16:15.857Z,0
2017-12-05T06:16:41.366Z,0
2017-12-05T06:17:06.850Z,0
2017-12-05T06:17:32.339Z,0
2017-12-05T06:17:57.838Z,0
2017-12-05T06:18:23.311Z,0
2017-12-05T06:18:48.827Z,0
2017-12-05T06:19:14.343Z,0
2017-12-05T06:19:39.843Z,0
2017-12-05T06:20:05.370Z,0
2017-12-05T06:20:30.884Z,0
2017-12-05T06:20:56.338Z,0
2017-12-05T06:21:21.901Z,0
2017-12-05T06:21:47.332Z,0
2017-12-05T06:22:12.765Z,0
2017-12-05T06:22:38.261Z,0
2017-12-05T06:23:03.755Z,0
2017-12-05T06:23:29.309Z,0
2017-12-05T06:23:54.790Z,0
2017-12-05T06:24:20.300Z,0
2017-12-05T06:24:45.753Z,0
2017-12-05T06:25:11.241Z,0
2017-12-05T06:25:36.722Z,0
2017-12-05T06:26:02.212Z,0
2017-12-05T06:26:27.714Z,0
2017-12-05T06:26:53.206Z,0
2017-12-05T06:27:18.686Z,0
2017-12-05T06:27:44.179Z,0
2017-12-05T06:28:09.677Z,0
2017-12-05T06:28:35.140Z,0
2017-12-05T06:29:00.669Z,0
2017-12-05T06:29:26.109Z,0
2017-12-05T06:29:51.573Z,0
2017-12-05T06:30:17.061Z,0
2017-12-05T06:30:42.561Z,0
2017-12-05T06:31:08.029Z,0
2017-12-05T06:31:33.515Z,0
2017-12-05T06:31:59.004Z,0
2017-12-05T06:33:28.151Z,0
2017-12-05T06:33:53.641Z,0
2017-12-05T06:34:19.151Z,0
2017-12-05T06:34:44.639Z,0
2017-12-05T06:35:10.123Z,0
2017-12-05T06:35:35.620Z,0
2017-12-05T06:36:01.125Z,0
2017-12-05T06:36:26.600Z,0
2017-12-05T06:36:52.113Z,0
2017-12-05T06:37:17.615Z,0
2017-12-05T06:37:43.186Z,0
2017-12-05T06:38:08.693Z,0
2017-12-05T06:38:34.220Z,0
2017-12-05T06:38:59.646Z,0
2017-12-05T06:39:25.275Z,0
2017-12-05T06:39:50.797Z,0
2017-12-05T06:40:16.264Z,0
2017-12-05T06:40:41.775Z,0
2017-12-05T06:41:07.317Z,0
2017-12-05T06:41:32.716Z,0
2017-12-05T06:41:58.146Z,0
2017-12-05T06:42:23.624Z,0
2017-12-05T06:42:49.127Z,0
2017-12-05T06:43:14.630Z,0
2017-12-05T06:43:40.109Z,0
2017-12-05T06:44:05.601Z,0
2017-12-05T06:44:31.128Z,0
2017-12-05T06:44:56.608Z,0
2017-12-05T06:45:22.111Z,0
2017-12-05T06:45:47.616Z,0
2017-12-05T06:46:13.124Z,0
2017-12-05T06:46:38.601Z,0
2017-12-05T06:47:04.097Z,0
2017-12-05T06:47:29.609Z,0
2017-12-05T06:47:55.088Z,0
2017-12-05T06:48:20.548Z,0
2017-12-05T06:48:46.077Z,0
2017-12-05T06:49:11.533Z,0
2017-12-05T06:49:37.136Z,0
2017-12-05T06:50:02.632Z,0
2017-12-05T06:50:28.200Z,0
2017-12-05T06:50:53.601Z,0
2017-12-05T06:51:19.142Z,0
2017-12-05T06:51:44.670Z,0
2017-12-05T06:52:10.258Z,0
2017-12-05T06:52:35.743Z,0
2017-12-05T06:53:01.368Z,0
2017-12-05T06:53:26.791Z,0
2017-12-05T06:53:52.446Z,0
2017-12-05T06:54:17.853Z,0
2017-12-05T06:54:43.358Z,0
2017-12-05T06:55:08.870Z,0
2017-12-05T06:55:34.451Z,0
2017-12-05T06:55:59.984Z,0
2017-12-05T06:56:25.521Z,0
2017-12-05T06:56:50.953Z,0
2017-12-05T06:57:16.454Z,0
2017-12-05T06:57:41.944Z,0
2017-12-05T06:58:07.429Z,0
2017-12-05T06:58:33.059Z,0
2017-12-05T06:58:58.629Z,0
2017-12-05T06:59:24.268Z,0
2017-12-05T06:59:49.694Z,0
2017-12-05T07:00:15.224Z,0
2017-12-05T07:00:40.758Z,0
2017-12-05T07:01:06.305Z,0
2017-12-05T07:01:31.735Z,0
2017-12-05T07:01:57.249Z,0
2017-12-05T07:02:22.849Z,0
2017-12-05T07:02:48.310Z,0
2017-12-05T07:03:13.795Z,0
2017-12-05T07:03:39.215Z,0
2017-12-05T07:04:04.723Z,0
2017-12-05T07:04:30.183Z,0
2017-12-05T07:04:55.642Z,0
2017-12-05T07:05:21.110Z,0
2017-12-05T07:05:46.812Z,0
2017-12-05T07:06:12.300Z,0
2017-12-05T07:06:37.792Z,0
2017-12-05T07:07:03.298Z,0
2017-12-05T07:07:28.769Z,0
2017-12-05T07:07:54.259Z,0
2017-12-05T07:08:19.815Z,0
2017-12-05T07:08:45.211Z,0
2017-12-05T07:09:10.709Z,0
2017-12-05T07:09:36.100Z,0
2017-12-05T07:10:01.643Z,0
2017-12-05T07:10:27.137Z,0
2017-12-05T07:10:52.534Z,0
2017-12-05T07:11:18.090Z,0
2017-12-05T07:11:43.527Z,0
2017-12-05T07:12:09.088Z,0
2017-12-05T07:12:34.604Z,0
2017-12-05T07:13:00.070Z,0
2017-12-05T07:13:25.575Z,0
2017-12-05T07:13:51.048Z,0
2017-12-05T07:14:16.614Z,0
2017-12-05T07:14:42.173Z,0
2017-12-05T07:15:07.607Z,0
2017-12-05T07:15:33.172Z,0
2017-12-05T07:15:58.601Z,0
2017-12-05T07:16:24.150Z,0
2017-12-05T07:16:49.659Z,0
2017-12-05T07:17:15.131Z,0
2017-12-05T07:17:40.634Z,0
2017-12-05T07:18:06.157Z,0
2017-12-05T07:18:31.553Z,0
2017-12-05T07:18:57.117Z,0
2017-12-05T07:19:22.628Z,0
2017-12-05T07:19:48.112Z,0
2017-12-05T07:20:13.595Z,0
2017-12-05T07:20:39.100Z,0
2017-12-05T07:21:04.571Z,0
2017-12-05T07:21:30.096Z,0
2017-12-05T07:21:55.551Z,0
2017-12-05T07:22:21.036Z,0
2017-12-05T07:22:46.520Z,0
2017-12-05T07:23:12.064Z,0
2017-12-05T07:23:37.465Z,0
2017-12-05T07:24:02.983Z,0
2017-12-05T07:24:28.520Z,0
2017-12-05T07:24:53.930Z,0
2017-12-05T07:25:19.496Z,0
2017-12-05T07:25:44.998Z,0
2017-12-05T07:26:10.531Z,0
2017-12-05T07:26:35.882Z,0
2017-12-05T07:27:01.474Z,0
2017-12-05T07:27:26.984Z,0
2017-12-05T07:27:52.508Z,0
2017-12-05T07:28:18.001Z,0
2017-12-05T07:28:43.480Z,0
2017-12-05T07:29:08.927Z,0
2017-12-05T07:29:34.425Z,0
2017-12-05T07:29:59.932Z,0
2017-12-05T07:30:25.401Z,0
2017-12-05T07:30:50.915Z,0
2017-12-05T07:31:16.481Z,0
2017-12-05T07:31:42.372Z,0
2017-12-05T07:32:07.719Z,5
2017-12-05T07:32:33.179Z,5
2017-12-05T07:32:58.763Z,0
2017-12-05T07:33:24.310Z,5
2017-12-05T07:33:49.842Z,5
2017-12-05T07:34:15.205Z,5
2017-12-05T07:34:40.850Z,5
2017-12-05T07:35:06.228Z,5
2017-12-05T07:35:31.752Z,5
2017-12-05T07:35:57.886Z,5
2017-12-05T07:36:23.253Z,5
2017-12-05T07:36:48.790Z,5
2017-12-05T07:37:14.435Z,5
2017-12-05T07:37:40.031Z,5
2017-12-05T07:38:05.783Z,5
2017-12-05T07:38:31.355Z,5
2017-12-05T07:38:56.823Z,5
2017-12-05T07:39:24.918Z,5
2017-12-05T07:39:50.683Z,5
2017-12-05T07:40:16.148Z,5
2017-12-05T07:40:41.573Z,5
2017-12-05T07:41:07.039Z,5
2017-12-05T07:41:32.555Z,5
2017-12-05T07:41:58.103Z,5
2017-12-05T07:42:23.624Z,5
2017-12-05T07:42:49.097Z,10
2017-12-05T07:43:14.613Z,10
2017-12-05T07:43:40.081Z,10
2017-12-05T07:44:05.513Z,10
2017-12-05T07:44:31.143Z,10
2017-12-05T07:44:56.501Z,10
2017-12-05T07:45:21.995Z,10
2017-12-05T07:45:47.647Z,10
2017-12-05T07:46:13.123Z,10
2017-12-05T07:46:38.516Z,10
2017-12-05T07:47:04.059Z,10
2017-12-05T07:47:29.579Z,10
2017-12-05T07:47:55.070Z,10
2017-12-05T07:48:20.557Z,10
2017-12-05T07:48:46.022Z,10
2017-12-05T07:49:11.576Z,10
2017-12-05T07:49:37.035Z,10
2017-12-05T07:50:02.642Z,10
2017-12-05T07:50:28.073Z,10
2017-12-05T07:50:53.555Z,10
2017-12-05T07:51:19.028Z,10
2017-12-05T07:51:44.544Z,10
2017-12-05T07:52:10.026Z,10
2017-12-05T07:52:35.459Z,10
2017-12-05T07:53:00.951Z,15
2017-12-05T07:53:26.454Z,15
2017-12-05T07:53:51.912Z,10
2017-12-05T07:54:17.447Z,15
2017-12-05T07:54:42.915Z,15
2017-12-05T07:55:08.429Z,15
2017-12-05T07:55:34.012Z,15
2017-12-05T07:55:59.499Z,15
2017-12-05T07:56:24.948Z,15
2017-12-05T07:56:50.560Z,15
2017-12-05T07:57:15.962Z,15
2017-12-05T07:57:41.457Z,15
2017-12-05T07:58:06.976Z,15
2017-12-05T07:58:32.487Z,15
2017-12-05T07:58:57.953Z,15
2017-12-05T07:59:23.563Z,20
2017-12-05T07:59:49.091Z,20
2017-12-05T08:00:14.499Z,20
2017-12-05T08:00:39.970Z,25
2017-12-05T08:01:05.517Z,25
2017-12-05T08:01:31.021Z,25
2017-12-05T08:01:56.483Z,25
2017-12-05T08:02:21.953Z,25
2017-12-05T08:02:47.435Z,25
2017-12-05T08:03:12.964Z,20
2017-12-05T08:03:38.464Z,20
2017-12-05T08:04:03.924Z,20
2017-12-05T08:04:29.383Z,20
2017-12-05T08:04:55.025Z,15
2017-12-05T08:05:20.436Z,15
2017-12-05T08:05:45.958Z,15
2017-12-05T08:06:11.508Z,15
2017-12-05T08:06:37.052Z,15
2017-12-05T08:07:02.396Z,15
2017-12-05T08:07:27.928Z,20
2017-12-05T08:07:53.331Z,20
2017-12-05T08:08:18.811Z,20
2017-12-05T08:08:44.302Z,20
2017-12-05T08:09:09.790Z,20
2017-12-05T08:09:35.304Z,25
2017-12-05T08:10:00.785Z,25
2017-12-05T08:11:19.723Z,20
2017-12-05T08:11:45.209Z,20
2017-12-05T08:12:10.722Z,20
2017-12-05T08:12:36.191Z,20
2017-12-05T08:13:49.999Z,20
2017-12-05T08:14:15.495Z,20
2017-12-05T08:14:40.962Z,20
2017-12-05T08:15:06.450Z,20
2017-12-05T08:15:31.935Z,20
2017-12-05T08:15:57.452Z,20
2017-12-05T08:17:16.383Z,20
2017-12-05T08:17:41.885Z,20
2017-12-05T08:18:07.366Z,20
2017-12-05T08:18:32.850Z,20
2017-12-05T08:18:58.359Z,20
2017-12-05T08:19:23.885Z,20
2017-12-05T08:19:49.378Z,20
2017-12-05T08:20:14.853Z,25
2017-12-05T08:20:40.310Z,25
2017-12-05T08:21:05.841Z,25
2017-12-05T08:21:31.365Z,20
2017-12-05T08:21:56.857Z,20
2017-12-05T08:22:22.311Z,25
2017-12-05T08:22:47.831Z,20
2017-12-05T08:23:13.329Z,20
2017-12-05T08:23:38.792Z,20
2017-12-05T08:24:04.274Z,20
2017-12-05T08:24:29.817Z,20
2017-12-05T08:24:55.295Z,20
2017-12-05T08:25:20.790Z,15
2017-12-05T08:25:46.258Z,20
2017-12-05T08:26:11.752Z,20
2017-12-05T08:26:37.250Z,20
2017-12-05T08:27:02.739Z,20
2017-12-05T08:27:28.254Z,25
2017-12-05T08:27:53.786Z,25
2017-12-05T08:28:19.241Z,25
2017-12-05T08:28:44.767Z,20
2017-12-05T08:29:10.238Z,20
2017-12-05T08:29:35.721Z,20
2017-12-05T08:30:01.174Z,20
2017-12-05T08:30:26.654Z,20
2017-12-05T08:30:52.139Z,20
2017-12-05T08:31:17.625Z,20
2017-12-05T08:31:43.144Z,15
2017-12-05T08:32:08.626Z,15
2017-12-05T08:32:34.118Z,15
2017-12-05T08:32:59.604Z,15
2017-12-05T08:33:25.111Z,15
2017-12-05T08:33:50.615Z,15
2017-12-05T08:34:16.135Z,20
2017-12-05T08:34:41.628Z,20
2017-12-05T08:35:07.114Z,20
2017-12-05T08:35:32.625Z,25
2017-12-05T08:35:58.116Z,25
2017-12-05T08:36:23.601Z,25
2017-12-05T08:36:49.121Z,20
2017-12-05T08:38:02.936Z,30
2017-12-05T08:38:28.425Z,30
2017-12-05T08:38:53.964Z,30
2017-12-05T08:39:19.428Z,30
2017-12-05T08:39:44.930Z,25
2017-12-05T08:40:10.419Z,25
2017-12-05T08:40:35.917Z,25
2017-12-05T08:41:01.408Z,25
2017-12-05T08:41:26.895Z,25
2017-12-05T08:41:52.387Z,25
2017-12-05T08:42:17.881Z,25
2017-12-05T08:42:43.385Z,30
2017-12-05T08:43:08.857Z,30
2017-12-05T08:43:34.366Z,30
2017-12-05T08:43:59.851Z,30
2017-12-05T08:44:25.286Z,35
2017-12-05T08:44:50.770Z,35
2017-12-05T08:45:16.269Z,30
2017-12-05T08:45:41.764Z,30
2017-12-05T08:46:07.275Z,30
2017-12-05T08:47:16.026Z,25
2017-12-05T08:47:41.513Z,25
2017-12-05T08:48:07.017Z,30
2017-12-05T08:48:32.494Z,30
2017-12-05T08:48:57.987Z,30
2017-12-05T08:49:23.463Z,25
2017-12-05T08:49:48.955Z,30
2017-12-05T08:51:07.870Z,30
2017-12-05T08:51:33.371Z,30
2017-12-05T08:51:58.859Z,30
2017-12-05T08:52:24.349Z,25
2017-12-05T08:52:49.837Z,25
2017-12-05T08:53:15.340Z,25
2017-12-05T08:53:40.838Z,25
2017-12-05T08:54:06.339Z,25
2017-12-05T08:54:31.836Z,20
2017-12-05T08:54:57.332Z,25
2017-12-05T08:55:22.873Z,25
2017-12-05T08:55:48.371Z,25
2017-12-05T08:56:13.843Z,20
2017-12-05T08:57:22.550Z,20
2017-12-05T08:57:48.063Z,20
2017-12-05T08:58:13.586Z,15
2017-12-05T08:58:39.088Z,15
2017-12-05T08:59:04.573Z,20
2017-12-05T08:59:30.079Z,20
2017-12-05T08:59:55.562Z,20
2017-12-05T09:00:21.021Z,20
2017-12-05T09:00:46.511Z,20
2017-12-05T09:01:12.024Z,20
2017-12-05T09:01:37.527Z,25
2017-12-05T09:02:03.051Z,25
2017-12-05T09:02:28.494Z,25
2017-12-05T09:02:53.993Z,25
2017-12-05T09:03:19.508Z,25
2017-12-05T09:03:44.994Z,30
2017-12-05T09:04:10.493Z,30
2017-12-05T09:04:36.014Z,25
2017-12-05T09:05:01.510Z,25
2017-12-05T09:05:27.026Z,25
2017-12-05T09:05:52.536Z,25
2017-12-05T09:06:18.022Z,30
2017-12-05T09:06:43.506Z,30
2017-12-05T09:07:09.040Z,35
2017-12-05T09:07:34.530Z,35
2017-12-05T09:07:59.999Z,40
2017-12-05T09:08:25.507Z,40
2017-12-05T09:08:50.991Z,40
2017-12-05T09:09:16.503Z,40
2017-12-05T09:09:41.975Z,45
2017-12-05T09:10:07.465Z,50
2017-12-05T09:10:32.946Z,50
2017-12-05T09:10:58.423Z,55
2017-12-05T09:11:23.917Z,60
2017-12-05T09:11:49.415Z,60
2017-12-05T09:12:14.962Z,65
2017-12-05T09:12:40.470Z,60
2017-12-05T09:13:05.973Z,65
2017-12-05T09:14:24.903Z,60
2017-12-05T09:14:50.391Z,60
2017-12-05T09:15:15.875Z,65
2017-12-05T09:15:41.374Z,60
2017-12-05T09:16:06.925Z,60
2017-12-05T09:16:32.401Z,60
2017-12-05T09:17:41.097Z,50
2017-12-05T09:18:06.589Z,50
2017-12-05T09:18:32.084Z,50
2017-12-05T09:20:01.222Z,50
2017-12-05T09:20:26.692Z,50
2017-12-05T09:20:52.190Z,55
2017-12-05T09:21:17.636Z,50
2017-12-05T09:21:43.118Z,45
2017-12-05T09:22:08.580Z,40
2017-12-05T09:22:34.074Z,40
2017-12-05T09:22:59.604Z,35
2017-12-05T09:23:25.067Z,35
2017-12-05T09:24:33.797Z,30
2017-12-05T09:24:59.298Z,30
2017-12-05T09:25:24.777Z,30
2017-12-05T09:25:50.281Z,30
2017-12-05T09:26:15.802Z,30
2017-12-05T09:26:41.295Z,30
2017-12-05T09:27:06.817Z,30
2017-12-05T09:28:15.509Z,30
2017-12-05T09:28:41.015Z,30
2017-12-05T09:29:06.508Z,30
2017-12-05T09:29:32.041Z,25
2017-12-05T09:29:57.558Z,30
2017-12-05T09:30:23.029Z,25
2017-12-05T09:30:48.531Z,25
2017-12-05T09:31:14.014Z,25
2017-12-05T09:32:38.075Z,25
2017-12-05T09:33:03.548Z,25
2017-12-05T09:33:29.032Z,25
2017-12-05T09:33:54.521Z,25
2017-12-05T09:34:20.021Z,25
2017-12-05T09:34:45.546Z,30
2017-12-05T09:35:11.003Z,30
2017-12-05T09:35:36.489Z,25
2017-12-05T09:36:01.966Z,25
2017-12-05T09:36:27.476Z,25
2017-12-05T09:36:52.983Z,30
2017-12-05T09:37:18.457Z,30
2017-12-05T09:37:43.967Z,30
2017-12-05T09:38:09.445Z,30
2017-12-05T09:38:34.932Z,35
2017-12-05T09:39:00.440Z,35
2017-12-05T09:39:25.900Z,35
2017-12-05T09:39:51.383Z,40
2017-12-05T09:40:16.924Z,40
2017-12-05T09:40:42.417Z,40
2017-12-05T09:41:07.909Z,45
2017-12-05T09:41:33.402Z,45
2017-12-05T09:41:58.898Z,50
2017-12-05T09:42:24.445Z,50
2017-12-05T09:42:49.964Z,50
2017-12-05T09:43:15.454Z,50
2017-12-05T09:43:40.929Z,55
2017-12-05T09:44:06.525Z,60
2017-12-05T09:44:31.938Z,60
2017-12-05T09:44:57.454Z,60
2017-12-05T09:45:23.052Z,65
2017-12-05T09:45:48.517Z,65
2017-12-05T09:46:14.005Z,60
2017-12-05T09:46:39.464Z,60
2017-12-05T09:47:04.909Z,60
2017-12-05T09:47:30.430Z,60
2017-12-05T09:47:55.896Z,55
2017-12-05T09:48:21.412Z,50
2017-12-05T09:48:46.889Z,50
2017-12-05T09:49:12.401Z,50
2017-12-05T09:50:26.205Z,50
2017-12-05T09:50:51.709Z,45
2017-12-05T09:52:20.810Z,50
2017-12-05T09:52:46.287Z,45
2017-12-05T09:53:11.735Z,45
2017-12-05T09:53:37.179Z,45
2017-12-05T09:54:02.685Z,45
2017-12-05T09:54:28.198Z,50
2017-12-05T09:54:53.742Z,55
2017-12-05T09:56:17.749Z,55
2017-12-05T09:56:43.233Z,60
2017-12-05T09:57:08.738Z,65
2017-12-05T09:58:17.432Z,55
2017-12-05T09:58:42.915Z,60
2017-12-05T09:59:08.433Z,65
2017-12-05T10:00:27.320Z,65
2017-12-05T10:00:52.794Z,60
2017-12-05T10:01:18.326Z,55
2017-12-05T10:01:43.858Z,50
2017-12-05T10:02:09.355Z,55
2017-12-05T10:02:34.842Z,55
2017-12-05T10:03:53.772Z,55
2017-12-05T10:04:19.272Z,55
2017-12-05T10:04:44.788Z,55
2017-12-05T10:05:10.276Z,55
2017-12-05T10:05:35.772Z,55
2017-12-05T10:06:01.274Z,55
2017-12-05T10:06:26.782Z,55
2017-12-05T10:06:52.286Z,55
2017-12-05T10:07:17.811Z,55
2017-12-05T10:07:43.291Z,50
2017-12-05T10:08:08.778Z,50
2017-12-05T10:08:34.276Z,50
2017-12-05T10:09:58.271Z,55
2017-12-05T10:10:23.778Z,55
2017-12-05T10:10:49.270Z,55
2017-12-05T10:11:14.765Z,60
2017-12-05T10:11:40.225Z,65
2017-12-05T10:12:05.692Z,70
2017-12-05T10:12:31.174Z,70
2017-12-05T10:12:56.682Z,70
2017-12-05T10:13:22.163Z,70
2017-12-05T10:13:47.682Z,65
2017-12-05T10:14:13.157Z,65
2017-12-05T10:14:38.634Z,60
2017-12-05T10:15:04.071Z,60
2017-12-05T10:15:29.565Z,65
2017-12-05T10:16:53.119Z,55
2017-12-05T10:17:18.606Z,55
2017-12-05T10:17:44.063Z,55
2017-12-05T10:18:09.534Z,50
2017-12-05T10:18:35.038Z,50
2017-12-05T10:19:00.535Z,55
2017-12-05T10:19:26.005Z,55
2017-12-05T10:19:51.477Z,55
2017-12-05T10:20:17.005Z,55
2017-12-05T10:20:42.439Z,55
2017-12-05T10:21:07.963Z,55
2017-12-05T10:21:33.454Z,55
2017-12-05T10:21:58.981Z,50
2017-12-05T10:22:24.472Z,50
2017-12-05T10:22:49.919Z,55
2017-12-05T10:24:08.834Z,55
2017-12-05T10:24:34.325Z,55
2017-12-05T10:24:59.807Z,65
2017-12-05T10:25:25.303Z,65
2017-12-05T10:25:50.788Z,65
2017-12-05T10:26:16.282Z,60
2017-12-05T10:26:41.773Z,60
2017-12-05T10:27:07.260Z,60
2017-12-05T10:27:32.769Z,60
2017-12-05T10:27:58.264Z,60
2017-12-05T10:28:23.788Z,60
2017-12-05T10:28:49.318Z,60
2017-12-05T10:29:14.773Z,55
2017-12-05T10:29:40.237Z,60
2017-12-05T10:30:05.717Z,55
2017-12-05T10:30:31.160Z,55
2017-12-05T10:30:56.649Z,60
2017-12-05T10:31:22.140Z,60
2017-12-05T10:32:30.856Z,60
2017-12-05T10:32:56.336Z,60
2017-12-05T10:33:21.846Z,60
2017-12-05T10:33:47.345Z,60
2017-12-05T10:34:12.847Z,60
2017-12-05T10:34:38.343Z,55
2017-12-05T10:35:03.813Z,55
2017-12-05T10:35:29.313Z,55
2017-12-05T10:35:54.824Z,55
2017-12-05T10:36:20.287Z,55
2017-12-05T10:36:45.794Z,55
2017-12-05T10:37:11.302Z,50
2017-12-05T10:37:36.812Z,50
2017-12-05T10:38:02.303Z,55
2017-12-05T10:38:27.833Z,60
2017-12-05T10:38:53.326Z,60
2017-12-05T10:39:18.848Z,55
2017-12-05T10:39:44.341Z,60
2017-12-05T10:40:09.843Z,55
2017-12-05T10:40:35.353Z,55
2017-12-05T10:41:00.874Z,55
2017-12-05T10:41:26.392Z,55
2017-12-05T10:41:51.884Z,55
2017-12-05T10:42:17.391Z,55
2017-12-05T10:42:42.919Z,55
2017-12-05T10:43:08.416Z,60
2017-12-05T10:43:33.926Z,65
2017-12-05T10:43:59.417Z,65
2017-12-05T10:44:24.899Z,70
2017-12-05T10:44:50.399Z,70
2017-12-05T10:45:15.890Z,75
2017-12-05T10:45:41.394Z,75
2017-12-05T10:46:06.893Z,75
2017-12-05T10:46:32.391Z,75
2017-12-05T10:46:57.910Z,75
2017-12-05T10:47:23.392Z,75
2017-12-05T10:47:48.906Z,75
2017-12-05T10:48:14.391Z,80
2017-12-05T10:48:39.861Z,80
2017-12-05T10:49:05.339Z,80
2017-12-05T10:49:30.839Z,75
2017-12-05T10:49:56.378Z,70
2017-12-05T10:50:21.865Z,70
2017-12-05T10:50:47.326Z,70
2017-12-05T10:51:12.835Z,70
2017-12-05T10:51:38.335Z,65
2017-12-05T10:52:03.816Z,60
2017-12-05T10:52:29.333Z,60
2017-12-05T10:52:54.859Z,55
2017-12-05T10:53:20.306Z,55
2017-12-05T10:53:45.820Z,55
2017-12-05T10:54:11.334Z,55
2017-12-05T10:54:36.806Z,50
2017-12-05T10:55:02.315Z,50
2017-12-05T10:55:27.800Z,50
2017-12-05T10:55:53.314Z,50
2017-12-05T10:56:18.795Z,50
2017-12-05T10:56:44.334Z,50
2017-12-05T10:57:09.849Z,50
2017-12-05T10:57:35.340Z,50
2017-12-05T10:58:00.846Z,55
2017-12-05T10:58:26.312Z,55
2017-12-05T10:58:51.824Z,55
2017-12-05T10:59:17.317Z,55
2017-12-05T10:59:42.786Z,55
2017-12-05T11:00:08.322Z,55
2017-12-05T11:00:33.814Z,50
2017-12-05T11:00:59.321Z,50
2017-12-05T11:01:24.810Z,50
2017-12-05T11:01:50.321Z,50
2017-12-05T11:02:15.805Z,50
2017-12-05T11:03:34.727Z,50
2017-12-05T11:04:00.218Z,50
2017-12-05T11:04:25.730Z,50
2017-12-05T11:04:51.251Z,50
2017-12-05T11:05:16.739Z,50
2017-12-05T11:05:42.193Z,50
2017-12-05T11:06:07.684Z,50
2017-12-05T11:06:33.195Z,50
2017-12-05T11:06:58.701Z,50
2017-12-05T11:07:24.157Z,50
2017-12-05T11:07:49.641Z,55
2017-12-05T11:08:15.128Z,55
2017-12-05T11:08:40.612Z,55
2017-12-05T11:09:06.122Z,60
2017-12-05T11:09:31.609Z,60
2017-12-05T11:09:57.108Z,65
2017-12-05T11:10:22.567Z,65
2017-12-05T11:10:48.054Z,70
2017-12-05T11:11:13.553Z,65
2017-12-05T11:11:39.071Z,65
2017-12-05T11:12:04.564Z,65
2017-12-05T11:13:13.260Z,60
2017-12-05T11:13:38.750Z,60
2017-12-05T11:14:04.236Z,60
2017-12-05T11:14:29.721Z,60
2017-12-05T11:14:55.172Z,60
2017-12-05T11:15:20.664Z,60
2017-12-05T11:15:46.161Z,60
2017-12-05T11:16:11.694Z,60
2017-12-05T11:16:37.208Z,55
2017-12-05T11:17:02.711Z,55
2017-12-05T11:17:28.217Z,60
2017-12-05T11:18:36.929Z,60
2017-12-05T11:19:02.425Z,60
2017-12-05T11:19:27.885Z,60
2017-12-05T11:19:53.390Z,55
2017-12-05T11:20:18.883Z,55
2017-12-05T11:21:42.855Z,55
2017-12-05T11:22:08.367Z,55
2017-12-05T11:22:33.869Z,55
2017-12-05T11:22:59.326Z,55
2017-12-05T11:23:24.803Z,55
2017-12-05T11:23:50.264Z,60
2017-12-05T11:24:15.761Z,60
2017-12-05T11:24:41.262Z,55
2017-12-05T11:25:06.744Z,55
2017-12-05T11:25:32.221Z,55
2017-12-05T11:25:57.703Z,55
2017-12-05T11:26:23.192Z,55
2017-12-05T11:26:48.688Z,55
2017-12-05T11:27:14.152Z,50
2017-12-05T11:27:39.678Z,50
2017-12-05T11:29:03.710Z,50
2017-12-05T11:29:29.222Z,50
2017-12-05T11:29:54.701Z,55
2017-12-05T11:30:20.166Z,55
2017-12-05T11:30:45.646Z,60
2017-12-05T11:31:11.112Z,65
2017-12-05T11:31:36.684Z,65
2017-12-05T11:32:02.187Z,65
2017-12-05T11:32:27.691Z,70
2017-12-05T11:32:53.152Z,70
2017-12-05T11:34:06.911Z,65
2017-12-05T11:34:32.405Z,65
2017-12-05T11:34:57.873Z,60
2017-12-05T11:36:26.969Z,60
2017-12-05T11:36:52.471Z,60
2017-12-05T11:37:17.958Z,55
2017-12-05T11:37:43.423Z,55
2017-12-05T11:38:08.894Z,55
2017-12-05T11:38:34.398Z,55
2017-12-05T11:39:48.207Z,55
2017-12-05T11:40:13.691Z,55